createdAt,value
2022-12-18T00:00:02.492Z,-3.85
2022-12-18T00:01:05.099Z,-3.82
2022-12-18T00:02:07.863Z,-3.8
2022-12-18T00:03:10.850Z,-3.78
2022-12-18T00:04:14.119Z,-3.79
2022-12-18T00:05:16.953Z,-3.77
2022-12-18T00:06:19.564Z,-3.75
2022-12-18T00:07:22.227Z,-3.72
2022-12-18T00:08:24.835Z,-3.7
2022-12-18T00:09:41.117Z,-3.69
2022-12-18T00:10:46.092Z,-3.69
2022-12-18T00:11:48.605Z,-3.74
2022-12-18T00:12:51.132Z,-3.77
2022-12-18T00:13:53.756Z,-3.82
2022-12-18T00:14:56.370Z,-3.86
2022-12-18T00:15:59.081Z,-3.85
2022-12-18T00:17:01.771Z,-3.83
2022-12-18T00:18:04.311Z,-3.83
2022-12-18T00:19:06.834Z,-3.84
2022-12-18T00:20:09.389Z,-3.88
2022-12-18T00:21:12.238Z,-4.04
2022-12-18T00:22:14.793Z,-4.17
2022-12-18T00:23:17.696Z,-4.24
2022-12-18T00:24:21.112Z,-4.27
2022-12-18T00:25:24.403Z,-4.28
2022-12-18T00:26:26.929Z,-4.33
2022-12-18T00:27:29.450Z,-4.35
2022-12-18T00:28:32.055Z,-4.36
2022-12-18T00:29:34.634Z,-4.37
2022-12-18T00:30:37.197Z,-4.41
2022-12-18T00:31:40.010Z,-4.48
2022-12-18T00:32:42.673Z,-4.57
2022-12-18T00:33:45.238Z,-4.59
2022-12-18T00:34:47.815Z,-4.66
2022-12-18T00:35:50.411Z,-4.62
2022-12-18T00:36:52.889Z,-4.59
2022-12-18T00:37:55.366Z,-4.54
2022-12-18T00:38:58.026Z,-4.49
2022-12-18T00:40:00.585Z,-4.48
2022-12-18T00:41:03.183Z,-4.44
2022-12-18T00:42:05.704Z,-4.42
2022-12-18T00:43:08.310Z,-4.37
2022-12-18T00:44:10.864Z,-4.32
2022-12-18T00:45:13.685Z,-4.26
2022-12-18T00:46:16.427Z,-4.24
2022-12-18T00:47:19.341Z,-4.24
2022-12-18T00:48:21.912Z,-4.23
2022-12-18T00:49:24.509Z,-4.2
2022-12-18T00:50:27.079Z,-4.21
2022-12-18T00:51:29.628Z,-4.23
2022-12-18T00:52:32.144Z,-4.23
2022-12-18T00:53:35.222Z,-4.35
2022-12-18T00:54:41.845Z,-4.55
2022-12-18T00:55:44.190Z,-4.69
2022-12-18T00:56:50.357Z,-4.75
2022-12-18T00:57:52.630Z,-4.76
2022-12-18T00:58:55.190Z,-4.79
2022-12-18T00:59:57.820Z,-4.84
2022-12-18T01:01:00.664Z,-4.85
2022-12-18T01:02:03.694Z,-4.82
2022-12-18T01:03:06.917Z,-4.76
2022-12-18T01:04:09.770Z,-4.72
2022-12-18T01:05:12.416Z,-4.67
2022-12-18T01:06:15.032Z,-4.66
2022-12-18T01:07:17.659Z,-4.63
2022-12-18T01:08:21.451Z,-4.58
2022-12-18T01:09:24.582Z,-4.53
2022-12-18T01:10:27.269Z,-4.46
2022-12-18T01:11:29.820Z,-4.41
2022-12-18T01:12:32.370Z,-4.35
2022-12-18T01:13:35.790Z,-4.3
2022-12-18T01:14:38.888Z,-4.27
2022-12-18T01:15:41.440Z,-4.24
2022-12-18T01:16:44.271Z,-4.21
2022-12-18T01:17:46.902Z,-4.19
2022-12-18T01:18:49.599Z,-4.17
2022-12-18T01:19:52.167Z,-4.15
2022-12-18T01:20:54.753Z,-4.15
2022-12-18T01:21:57.344Z,-4.15
2022-12-18T01:22:59.899Z,-4.13
2022-12-18T01:24:03.049Z,-4.11
2022-12-18T01:25:05.933Z,-4.1
2022-12-18T01:26:08.554Z,-4.09
2022-12-18T01:27:11.162Z,-4.1
2022-12-18T01:28:13.740Z,-4.08
2022-12-18T01:29:16.285Z,-4.06
2022-12-18T01:30:18.903Z,-4.06
2022-12-18T01:31:21.744Z,-4.07
2022-12-18T01:32:24.417Z,-4.11
2022-12-18T01:33:26.987Z,-4.13
2022-12-18T01:34:29.508Z,-4.18
2022-12-18T01:35:32.081Z,-4.17
2022-12-18T01:36:34.700Z,-4.14
2022-12-18T01:37:37.332Z,-4.16
2022-12-18T01:38:39.923Z,-4.13
2022-12-18T01:39:42.568Z,-4.14
2022-12-18T01:40:45.161Z,-4.15
2022-12-18T01:41:47.738Z,-4.15
2022-12-18T01:42:50.327Z,-4.15
2022-12-18T01:43:52.926Z,-4.17
2022-12-18T01:44:55.492Z,-4.17
2022-12-18T01:45:58.295Z,-4.21
2022-12-18T01:47:00.923Z,-4.26
2022-12-18T01:48:03.460Z,-4.25
2022-12-18T01:49:06.072Z,-4.21
2022-12-18T01:50:09.914Z,-4.19
2022-12-18T01:51:12.430Z,-4.17
2022-12-18T01:52:15.036Z,-4.14
2022-12-18T01:53:17.640Z,-4.12
2022-12-18T01:54:20.220Z,-4.14
2022-12-18T01:55:22.836Z,-4.16
2022-12-18T01:56:25.373Z,-4.16
2022-12-18T01:57:27.969Z,-4.15
2022-12-18T01:58:30.640Z,-4.11
2022-12-18T01:59:33.205Z,-4.11
2022-12-18T02:00:35.785Z,-4.09
2022-12-18T02:01:38.939Z,-4.08
2022-12-18T02:02:42.343Z,-4.07
2022-12-18T02:03:45.172Z,-4.06
2022-12-18T02:04:49.961Z,-4.06
2022-12-18T02:05:52.307Z,-4.07
2022-12-18T02:06:54.759Z,-4.07
2022-12-18T02:07:57.317Z,-4.08
2022-12-18T02:08:59.922Z,-4.07
2022-12-18T02:10:02.657Z,-4.07
2022-12-18T02:11:05.445Z,-4.06
2022-12-18T02:12:08.001Z,-4.05
2022-12-18T02:13:10.937Z,-4.03
2022-12-18T02:14:13.636Z,-4
2022-12-18T02:15:16.621Z,-3.99
2022-12-18T02:16:19.400Z,-3.98
2022-12-18T02:17:22.051Z,-3.98
2022-12-18T02:18:24.604Z,-3.98
2022-12-18T02:19:27.219Z,-3.98
2022-12-18T02:20:29.869Z,-3.97
2022-12-18T02:21:32.448Z,-4.06
2022-12-18T02:22:35.049Z,-4.12
2022-12-18T02:23:39.078Z,-4.16
2022-12-18T02:24:42.080Z,-4.13
2022-12-18T02:25:44.627Z,-4.13
2022-12-18T02:26:47.172Z,-4.11
2022-12-18T02:27:49.735Z,-4.11
2022-12-18T02:28:52.662Z,-4.16
2022-12-18T02:29:59.293Z,-4.16
2022-12-18T02:31:01.734Z,-4.14
2022-12-18T02:32:04.454Z,-4.12
2022-12-18T02:33:07.029Z,-4.11
2022-12-18T02:34:09.624Z,-4.1
2022-12-18T02:35:12.197Z,-4.09
2022-12-18T02:36:14.818Z,-4.2
2022-12-18T02:37:17.451Z,-4.24
2022-12-18T02:38:20.021Z,-4.27
2022-12-18T02:39:22.628Z,-4.37
2022-12-18T02:40:25.207Z,-4.43
2022-12-18T02:41:27.795Z,-4.48
2022-12-18T02:42:30.382Z,-4.59
2022-12-18T02:43:32.970Z,-4.65
2022-12-18T02:44:35.893Z,-4.67
2022-12-18T02:45:38.657Z,-4.69
2022-12-18T02:46:41.267Z,-4.67
2022-12-18T02:47:43.797Z,-4.69
2022-12-18T02:48:46.397Z,-4.71
2022-12-18T02:49:49.010Z,-4.73
2022-12-18T02:50:51.571Z,-4.72
2022-12-18T02:51:54.107Z,-4.73
2022-12-18T02:52:56.703Z,-4.71
2022-12-18T02:53:59.258Z,-4.69
2022-12-18T02:55:01.841Z,-4.68
2022-12-18T02:56:04.456Z,-4.67
2022-12-18T02:57:07.044Z,-4.63
2022-12-18T02:58:09.583Z,-4.57
2022-12-18T02:59:12.142Z,-4.52
2022-12-18T03:00:15.073Z,-4.45
2022-12-18T03:01:18.106Z,-4.41
2022-12-18T03:02:21.551Z,-4.37
2022-12-18T03:03:24.654Z,-4.35
2022-12-18T03:04:27.322Z,-4.34
2022-12-18T03:05:29.920Z,-4.34
2022-12-18T03:06:32.487Z,-4.37
2022-12-18T03:07:35.071Z,-4.42
2022-12-18T03:08:37.655Z,-4.41
2022-12-18T03:09:40.232Z,-4.4
2022-12-18T03:10:42.860Z,-4.38
2022-12-18T03:11:45.428Z,-4.35
2022-12-18T03:12:48.011Z,-4.36
2022-12-18T03:13:50.612Z,-4.39
2022-12-18T03:14:53.166Z,-4.45
2022-12-18T03:15:56.121Z,-4.54
2022-12-18T03:16:58.853Z,-4.59
2022-12-18T03:18:01.544Z,-4.56
2022-12-18T03:19:04.141Z,-4.6
2022-12-18T03:20:06.780Z,-4.69
2022-12-18T03:21:09.391Z,-4.81
2022-12-18T03:22:11.980Z,-4.91
2022-12-18T03:23:14.578Z,-4.94
2022-12-18T03:24:17.119Z,-4.97
2022-12-18T03:25:19.704Z,-4.94
2022-12-18T03:26:22.345Z,-4.88
2022-12-18T03:27:24.867Z,-4.83
2022-12-18T03:28:27.458Z,-4.79
2022-12-18T03:29:29.986Z,-4.81
2022-12-18T03:30:32.866Z,-4.8
2022-12-18T03:31:35.948Z,-4.76
2022-12-18T03:32:38.609Z,-4.77
2022-12-18T03:33:44.732Z,-4.85
2022-12-18T03:34:47.058Z,-4.92
2022-12-18T03:35:49.641Z,-4.93
2022-12-18T03:36:52.221Z,-4.9
2022-12-18T03:37:54.741Z,-4.86
2022-12-18T03:38:57.339Z,-4.78
2022-12-18T03:39:59.953Z,-4.69
2022-12-18T03:41:02.542Z,-4.64
2022-12-18T03:42:05.131Z,-4.6
2022-12-18T03:43:07.740Z,-4.56
2022-12-18T03:44:10.317Z,-4.49
2022-12-18T03:45:12.923Z,-4.47
2022-12-18T03:46:15.676Z,-4.44
2022-12-18T03:47:18.723Z,-4.45
2022-12-18T03:48:21.437Z,-4.43
2022-12-18T03:49:24.058Z,-4.43
2022-12-18T03:50:26.619Z,-4.42
2022-12-18T03:51:32.689Z,-4.39
2022-12-18T03:52:35.021Z,-4.37
2022-12-18T03:53:38.913Z,-4.35
2022-12-18T03:54:42.023Z,-4.34
2022-12-18T03:55:44.576Z,-4.33
2022-12-18T03:56:47.122Z,-4.31
2022-12-18T03:57:49.710Z,-4.28
2022-12-18T03:58:52.219Z,-4.25
2022-12-18T03:59:54.814Z,-4.24
2022-12-18T04:00:57.410Z,-4.22
2022-12-18T04:02:00.367Z,-4.21
2022-12-18T04:03:08.243Z,-4.18
2022-12-18T04:04:11.136Z,-4.17
2022-12-18T04:05:13.745Z,-4.18
2022-12-18T04:06:16.349Z,-4.25
2022-12-18T04:07:18.967Z,-4.41
2022-12-18T04:08:21.534Z,-4.48
2022-12-18T04:09:24.115Z,-4.48
2022-12-18T04:10:26.677Z,-4.49
2022-12-18T04:11:29.339Z,-4.46
2022-12-18T04:12:31.948Z,-4.43
2022-12-18T04:13:34.550Z,-4.4
2022-12-18T04:14:37.128Z,-4.44
2022-12-18T04:15:39.941Z,-4.52
2022-12-18T04:16:42.814Z,-4.63
2022-12-18T04:17:45.327Z,-4.73
2022-12-18T04:18:52.914Z,-4.82
2022-12-18T04:19:55.883Z,-4.84
2022-12-18T04:20:58.397Z,-4.88
2022-12-18T04:22:01.024Z,-4.93
2022-12-18T04:23:03.570Z,-5
2022-12-18T04:24:06.156Z,-5.01
2022-12-18T04:25:08.701Z,-5
2022-12-18T04:26:11.271Z,-4.97
2022-12-18T04:27:13.878Z,-4.9
2022-12-18T04:28:16.373Z,-4.83
2022-12-18T04:29:18.968Z,-4.76
2022-12-18T04:30:21.600Z,-4.69
2022-12-18T04:31:24.287Z,-4.64
2022-12-18T04:32:26.919Z,-4.6
2022-12-18T04:33:29.497Z,-4.55
2022-12-18T04:34:32.260Z,-4.51
2022-12-18T04:35:35.205Z,-4.47
2022-12-18T04:36:37.786Z,-4.43
2022-12-18T04:37:40.482Z,-4.4
2022-12-18T04:38:43.048Z,-4.41
2022-12-18T04:39:45.636Z,-4.39
2022-12-18T04:40:48.167Z,-4.39
2022-12-18T04:41:50.738Z,-4.37
2022-12-18T04:42:53.458Z,-4.35
2022-12-18T04:43:56.098Z,-4.34
2022-12-18T04:44:58.685Z,-4.33
2022-12-18T04:46:02.030Z,-4.33
2022-12-18T04:47:04.679Z,-4.32
2022-12-18T04:48:07.274Z,-4.32
2022-12-18T04:49:09.875Z,-4.34
2022-12-18T04:50:12.609Z,-4.35
2022-12-18T04:51:26.739Z,-4.37
2022-12-18T04:52:29.366Z,-4.38
2022-12-18T04:53:31.840Z,-4.35
2022-12-18T04:54:34.404Z,-4.35
2022-12-18T04:55:37.596Z,-4.39
2022-12-18T04:56:41.054Z,-4.39
2022-12-18T04:57:43.601Z,-4.38
2022-12-18T04:58:46.183Z,-4.46
2022-12-18T04:59:48.776Z,-4.53
2022-12-18T05:00:51.340Z,-4.53
2022-12-18T05:01:54.235Z,-4.5
2022-12-18T05:02:57.352Z,-4.47
2022-12-18T05:04:00.322Z,-4.43
2022-12-18T05:05:02.944Z,-4.4
2022-12-18T05:06:11.474Z,-4.35
2022-12-18T05:07:13.131Z,-4.33
2022-12-18T05:08:15.922Z,-4.31
2022-12-18T05:09:20.695Z,-4.29
2022-12-18T05:10:23.118Z,-4.31
2022-12-18T05:11:25.682Z,-4.32
2022-12-18T05:12:28.273Z,-4.31
2022-12-18T05:13:30.858Z,-4.3
2022-12-18T05:14:33.534Z,-4.27
2022-12-18T05:15:36.312Z,-4.25
2022-12-18T05:16:38.973Z,-4.23
2022-12-18T05:17:41.541Z,-4.21
2022-12-18T05:18:44.128Z,-4.22
2022-12-18T05:19:46.759Z,-4.21
2022-12-18T05:20:49.357Z,-4.22
2022-12-18T05:21:51.975Z,-4.25
2022-12-18T05:22:54.819Z,-4.28
2022-12-18T05:23:57.645Z,-4.26
2022-12-18T05:25:00.272Z,-4.25
2022-12-18T05:26:02.889Z,-4.23
2022-12-18T05:27:05.371Z,-4.21
2022-12-18T05:28:07.951Z,-4.18
2022-12-18T05:29:10.623Z,-4.17
2022-12-18T05:30:13.152Z,-4.16
2022-12-18T05:31:15.959Z,-4.13
2022-12-18T05:32:18.581Z,-4.13
2022-12-18T05:33:21.139Z,-4.13
2022-12-18T05:34:23.770Z,-4.11
2022-12-18T05:35:26.430Z,-4.1
2022-12-18T05:36:29.042Z,-4.08
2022-12-18T05:37:31.580Z,-4.07
2022-12-18T05:38:34.346Z,-4.06
2022-12-18T05:39:37.153Z,-4.05
2022-12-18T05:40:39.735Z,-4.03
2022-12-18T05:41:43.572Z,-4.02
2022-12-18T05:42:46.660Z,-4.01
2022-12-18T05:43:49.210Z,-4.01
2022-12-18T05:44:51.791Z,-4.04
2022-12-18T05:45:54.392Z,-4.05
2022-12-18T05:46:57.184Z,-4.07
2022-12-18T05:47:59.802Z,-4.08
2022-12-18T05:49:02.403Z,-4.08
2022-12-18T05:50:04.971Z,-4.11
2022-12-18T05:51:07.607Z,-4.14
2022-12-18T05:52:10.182Z,-4.21
2022-12-18T05:53:12.727Z,-4.23
2022-12-18T05:54:15.549Z,-4.22
2022-12-18T05:55:18.321Z,-4.23
2022-12-18T05:56:20.895Z,-4.24
2022-12-18T05:57:23.447Z,-4.27
2022-12-18T05:58:25.966Z,-4.28
2022-12-18T05:59:28.572Z,-4.28
2022-12-18T06:00:32.793Z,-4.3
2022-12-18T06:01:35.756Z,-4.32
2022-12-18T06:02:39.074Z,-4.31
2022-12-18T06:03:43.385Z,-4.31
2022-12-18T06:04:46.423Z,-4.31
2022-12-18T06:05:48.998Z,-4.32
2022-12-18T06:06:51.983Z,-4.3
2022-12-18T06:07:54.533Z,-4.29
2022-12-18T06:08:57.261Z,-4.29
2022-12-18T06:10:00.090Z,-4.28
2022-12-18T06:11:02.909Z,-4.28
2022-12-18T06:12:05.463Z,-4.28
2022-12-18T06:13:08.023Z,-4.29
2022-12-18T06:14:10.573Z,-4.27
2022-12-18T06:15:14.338Z,-4.25
2022-12-18T06:16:18.627Z,-4.27
2022-12-18T06:17:21.319Z,-4.27
2022-12-18T06:18:24.095Z,-4.26
2022-12-18T06:19:26.682Z,-4.25
2022-12-18T06:20:34.283Z,-4.27
2022-12-18T06:21:36.590Z,-4.25
2022-12-18T06:22:39.701Z,-4.25
2022-12-18T06:23:43.397Z,-4.23
2022-12-18T06:24:46.149Z,-4.25
2022-12-18T06:25:48.976Z,-4.26
2022-12-18T06:26:51.854Z,-4.27
2022-12-18T06:27:54.507Z,-4.28
2022-12-18T06:28:57.893Z,-4.32
2022-12-18T06:30:01.405Z,-4.37
2022-12-18T06:31:04.208Z,-4.33
2022-12-18T06:32:06.861Z,-4.32
2022-12-18T06:33:09.447Z,-4.31
2022-12-18T06:34:12.011Z,-4.3
2022-12-18T06:35:14.659Z,-4.28
2022-12-18T06:36:17.232Z,-4.26
2022-12-18T06:37:20.150Z,-4.24
2022-12-18T06:38:22.718Z,-4.24
2022-12-18T06:39:25.260Z,-4.24
2022-12-18T06:40:27.861Z,-4.22
2022-12-18T06:41:30.751Z,-4.22
2022-12-18T06:42:33.611Z,-4.23
2022-12-18T06:43:36.334Z,-4.24
2022-12-18T06:44:39.357Z,-4.24
2022-12-18T06:45:42.029Z,-4.25
2022-12-18T06:46:44.690Z,-4.27
2022-12-18T06:47:47.292Z,-4.27
2022-12-18T06:48:49.892Z,-4.27
2022-12-18T06:49:52.351Z,-4.35
2022-12-18T06:50:54.928Z,-4.41
2022-12-18T06:51:57.522Z,-4.48
2022-12-18T06:53:00.161Z,-4.5
2022-12-18T06:54:02.777Z,-4.57
2022-12-18T06:55:05.384Z,-4.56
2022-12-18T06:56:11.341Z,-4.56
2022-12-18T06:57:19.341Z,-4.7
2022-12-18T06:58:28.905Z,-4.78
2022-12-18T06:59:31.622Z,-4.82
2022-12-18T07:00:34.164Z,-4.82
2022-12-18T07:01:37.019Z,-4.82
2022-12-18T07:02:40.319Z,-4.79
2022-12-18T07:03:45.621Z,-4.76
2022-12-18T07:04:48.453Z,-4.75
2022-12-18T07:05:51.045Z,-4.76
2022-12-18T07:06:54.247Z,-4.86
2022-12-18T07:07:57.127Z,-5.08
2022-12-18T07:08:59.723Z,-5.24
2022-12-18T07:10:02.305Z,-5.3
2022-12-18T07:11:04.874Z,-5.33
2022-12-18T07:12:07.476Z,-5.36
2022-12-18T07:13:15.812Z,-5.45
2022-12-18T07:14:30.046Z,-5.53
2022-12-18T07:15:32.248Z,-5.52
2022-12-18T07:16:34.809Z,-5.48
2022-12-18T07:17:37.476Z,-5.4
2022-12-18T07:18:40.028Z,-5.33
2022-12-18T07:19:43.202Z,-5.3
2022-12-18T07:20:47.863Z,-5.3
2022-12-18T07:21:51.480Z,-5.29
2022-12-18T07:22:56.674Z,-5.3
2022-12-18T07:23:58.979Z,-5.28
2022-12-18T07:25:01.541Z,-5.24
2022-12-18T07:26:04.117Z,-5.18
2022-12-18T07:27:08.726Z,-5.12
2022-12-18T07:28:17.924Z,-5.04
2022-12-18T07:29:20.130Z,-5
2022-12-18T07:30:23.618Z,-4.96
2022-12-18T07:31:26.462Z,-4.95
2022-12-18T07:32:29.068Z,-4.94
2022-12-18T07:33:32.556Z,-4.97
2022-12-18T07:34:35.624Z,-4.95
2022-12-18T07:35:39.055Z,-4.94
2022-12-18T07:36:41.645Z,-4.96
2022-12-18T07:37:44.231Z,-4.99
2022-12-18T07:38:46.715Z,-5.06
2022-12-18T07:39:51.745Z,-5.09
2022-12-18T07:40:54.110Z,-5.11
2022-12-18T07:41:56.662Z,-5.13
2022-12-18T07:42:59.259Z,-5.21
2022-12-18T07:44:01.794Z,-5.24
2022-12-18T07:45:04.335Z,-5.29
2022-12-18T07:46:07.447Z,-5.3
2022-12-18T07:47:12.584Z,-5.29
2022-12-18T07:48:14.967Z,-5.29
2022-12-18T07:49:17.612Z,-5.29
2022-12-18T07:50:20.187Z,-5.26
2022-12-18T07:51:22.858Z,-5.21
2022-12-18T07:52:26.671Z,-5.19
2022-12-18T07:53:29.065Z,-5.16
2022-12-18T07:54:31.644Z,-5.14
2022-12-18T07:56:05.773Z,-5.11
2022-12-18T07:56:55.960Z,-5.09
2022-12-18T07:58:01.567Z,-5.07
2022-12-18T07:59:03.866Z,-5.03
2022-12-18T08:00:06.402Z,-5.02
2022-12-18T08:01:12.000Z,-5.04
2022-12-18T08:02:15.211Z,-5.06
2022-12-18T08:03:20.189Z,-5.05
2022-12-18T08:04:22.781Z,-5.05
2022-12-18T08:05:25.316Z,-5.06
2022-12-18T08:06:27.914Z,-5.07
2022-12-18T08:07:31.464Z,-5.06
2022-12-18T08:08:34.691Z,-5.08
2022-12-18T08:09:37.236Z,-5.09
2022-12-18T08:10:39.844Z,-5.1
2022-12-18T08:11:42.430Z,-5.11
2022-12-18T08:12:45.024Z,-5.11
2022-12-18T08:13:47.923Z,-5.11
2022-12-18T08:14:51.413Z,-5.13
2022-12-18T08:15:53.946Z,-5.14
2022-12-18T08:16:56.954Z,-5.13
2022-12-18T08:17:59.889Z,-5.11
2022-12-18T08:19:02.425Z,-5.12
2022-12-18T08:20:05.630Z,-5.13
2022-12-18T08:21:09.453Z,-5.13
2022-12-18T08:22:12.353Z,-5.14
2022-12-18T08:23:14.871Z,-5.16
2022-12-18T08:24:17.484Z,-5.17
2022-12-18T08:25:20.103Z,-5.16
2022-12-18T08:26:22.705Z,-5.16
2022-12-18T08:27:30.729Z,-5.14
2022-12-18T08:28:33.281Z,-5.12
2022-12-18T08:29:35.859Z,-5.12
2022-12-18T08:30:38.927Z,-5.11
2022-12-18T08:31:41.704Z,-5.11
2022-12-18T08:32:44.575Z,-5.08
2022-12-18T08:33:47.374Z,-5.08
2022-12-18T08:34:49.934Z,-5.1
2022-12-18T08:35:52.546Z,-5.09
2022-12-18T08:36:55.107Z,-5.09
2022-12-18T08:37:57.606Z,-5.1
2022-12-18T08:39:00.529Z,-5.05
2022-12-18T08:40:03.109Z,-5.03
2022-12-18T08:41:05.634Z,-5
2022-12-18T08:42:10.711Z,-4.97
2022-12-18T08:43:13.027Z,-4.94
2022-12-18T08:44:15.651Z,-4.92
2022-12-18T08:45:18.294Z,-4.89
2022-12-18T08:46:21.150Z,-4.89
2022-12-18T08:47:23.815Z,-4.91
2022-12-18T08:48:26.623Z,-4.88
2022-12-18T08:49:29.444Z,-4.86
2022-12-18T08:50:32.002Z,-4.82
2022-12-18T08:51:34.597Z,-4.74
2022-12-18T08:52:37.209Z,-4.71
2022-12-18T08:53:41.126Z,-4.67
2022-12-18T08:54:44.204Z,-4.67
2022-12-18T08:55:50.721Z,-4.68
2022-12-18T08:56:53.027Z,-4.68
2022-12-18T08:57:55.550Z,-4.71
2022-12-18T08:58:58.164Z,-4.69
2022-12-18T09:00:00.711Z,-4.68
2022-12-18T09:01:03.561Z,-4.67
2022-12-18T09:02:10.388Z,-4.66
2022-12-18T09:03:13.876Z,-4.66
2022-12-18T09:04:21.564Z,-4.64
2022-12-18T09:05:24.266Z,-4.68
2022-12-18T09:06:26.799Z,-4.71
2022-12-18T09:07:29.405Z,-4.73
2022-12-18T09:08:31.976Z,-4.74
2022-12-18T09:09:34.525Z,-4.76
2022-12-18T09:10:43.686Z,-4.74
2022-12-18T09:11:45.898Z,-4.72
2022-12-18T09:12:49.533Z,-4.67
2022-12-18T09:13:52.030Z,-4.62
2022-12-18T09:14:54.592Z,-4.63
2022-12-18T09:15:57.152Z,-4.63
2022-12-18T09:17:00.050Z,-4.62
2022-12-18T09:18:02.746Z,-4.6
2022-12-18T09:19:05.349Z,-4.57
2022-12-18T09:20:08.023Z,-4.53
2022-12-18T09:21:10.939Z,-4.53
2022-12-18T09:22:13.510Z,-4.53
2022-12-18T09:23:16.120Z,-4.57
2022-12-18T09:24:18.668Z,-4.52
2022-12-18T09:25:22.395Z,-4.52
2022-12-18T09:26:25.917Z,-4.49
2022-12-18T09:27:28.499Z,-4.5
2022-12-18T09:28:31.072Z,-4.6
2022-12-18T09:29:33.785Z,-4.66
2022-12-18T09:30:37.539Z,-4.74
2022-12-18T09:31:40.044Z,-4.82
2022-12-18T09:32:42.631Z,-4.84
2022-12-18T09:33:45.262Z,-4.86
2022-12-18T09:34:57.795Z,-4.9
2022-12-18T09:36:05.900Z,-4.89
2022-12-18T09:37:12.469Z,-4.86
2022-12-18T09:38:14.818Z,-4.82
2022-12-18T09:39:23.031Z,-4.87
2022-12-18T09:40:26.452Z,-4.98
2022-12-18T09:41:28.936Z,-4.98
2022-12-18T09:42:31.491Z,-4.94
2022-12-18T09:43:34.068Z,-4.88
2022-12-18T09:44:45.865Z,-4.82
2022-12-18T09:45:48.276Z,-4.74
2022-12-18T09:46:51.521Z,-4.7
2022-12-18T09:47:55.016Z,-4.65
2022-12-18T09:48:57.513Z,-4.58
2022-12-18T09:50:00.299Z,-4.56
2022-12-18T09:51:03.185Z,-4.59
2022-12-18T09:52:06.610Z,-4.7
2022-12-18T09:53:15.393Z,-4.72
2022-12-18T09:54:17.877Z,-4.71
2022-12-18T09:55:20.607Z,-4.77
2022-12-18T09:56:23.160Z,-4.83
2022-12-18T09:57:25.883Z,-4.97
2022-12-18T09:58:28.439Z,-5.06
2022-12-18T09:59:31.465Z,-5.09
2022-12-18T10:00:33.943Z,-5.08
2022-12-18T10:01:45.870Z,-5.06
2022-12-18T10:02:50.248Z,-5.03
2022-12-18T10:03:53.018Z,-5.01
2022-12-18T10:04:55.544Z,-5.03
2022-12-18T10:06:01.605Z,-5.05
2022-12-18T10:07:09.622Z,-5.07
2022-12-18T10:08:12.555Z,-5.1
2022-12-18T10:09:15.254Z,-5.14
2022-12-18T10:10:18.005Z,-5.16
2022-12-18T10:11:20.568Z,-5.1
2022-12-18T10:12:23.104Z,-5.02
2022-12-18T10:13:25.882Z,-4.94
2022-12-18T10:14:28.431Z,-4.85
2022-12-18T10:15:31.276Z,-4.76
2022-12-18T10:16:33.953Z,-4.7
2022-12-18T10:17:36.564Z,-4.67
2022-12-18T10:18:40.277Z,-4.62
2022-12-18T10:19:43.359Z,-4.61
2022-12-18T10:20:46.125Z,-4.57
2022-12-18T10:21:48.915Z,-4.5
2022-12-18T10:22:51.450Z,-4.44
2022-12-18T10:23:54.101Z,-4.37
2022-12-18T10:24:58.722Z,-4.28
2022-12-18T10:26:02.599Z,-4.23
2022-12-18T10:27:05.184Z,-4.24
2022-12-18T10:28:07.805Z,-4.17
2022-12-18T10:29:10.378Z,-4.07
2022-12-18T10:30:12.985Z,-4
2022-12-18T10:31:15.809Z,-3.94
2022-12-18T10:32:18.507Z,-3.89
2022-12-18T10:33:21.109Z,-3.88
2022-12-18T10:34:24.707Z,-3.97
2022-12-18T10:35:27.291Z,-4.01
2022-12-18T10:36:29.956Z,-3.98
2022-12-18T10:37:32.572Z,-4.02
2022-12-18T10:38:35.155Z,-4.14
2022-12-18T10:39:37.781Z,-4.21
2022-12-18T10:40:40.433Z,-4.24
2022-12-18T10:41:43.215Z,-4.23
2022-12-18T10:42:45.766Z,-4.27
2022-12-18T10:43:48.391Z,-4.25
2022-12-18T10:44:51.042Z,-4.17
2022-12-18T10:45:53.661Z,-4.11
2022-12-18T10:46:56.604Z,-4.1
2022-12-18T10:47:59.292Z,-4.17
2022-12-18T10:49:01.861Z,-4.42
2022-12-18T10:50:04.482Z,-4.72
2022-12-18T10:51:13.572Z,-4.92
2022-12-18T10:52:21.080Z,-4.84
2022-12-18T10:53:25.281Z,-4.81
2022-12-18T10:54:28.007Z,-4.75
2022-12-18T10:55:31.095Z,-4.71
2022-12-18T10:56:33.726Z,-4.6
2022-12-18T10:57:36.500Z,-4.49
2022-12-18T10:58:39.343Z,-4.38
2022-12-18T10:59:42.918Z,-4.35
2022-12-18T11:00:45.505Z,-4.31
2022-12-18T11:01:48.621Z,-4.23
2022-12-18T11:02:52.193Z,-4.18
2022-12-18T11:04:03.049Z,-4.11
2022-12-18T11:05:05.588Z,-4.03
2022-12-18T11:06:08.136Z,-3.96
2022-12-18T11:07:10.740Z,-3.89
2022-12-18T11:08:13.355Z,-3.91
2022-12-18T11:09:16.025Z,-4
2022-12-18T11:10:18.568Z,-4
2022-12-18T11:11:21.435Z,-4
2022-12-18T11:12:24.357Z,-3.96
2022-12-18T11:13:27.120Z,-3.92
2022-12-18T11:14:33.638Z,-3.87
2022-12-18T11:15:35.986Z,-3.85
2022-12-18T11:16:38.608Z,-3.81
2022-12-18T11:17:41.593Z,-3.82
2022-12-18T11:18:44.557Z,-3.86
2022-12-18T11:19:47.148Z,-3.94
2022-12-18T11:20:58.608Z,-4.03
2022-12-18T11:22:01.217Z,-4.12
2022-12-18T11:23:04.108Z,-4.18
2022-12-18T11:24:07.414Z,-4.16
2022-12-18T11:25:31.372Z,-4.08
2022-12-18T11:26:31.767Z,-3.99
2022-12-18T11:27:35.027Z,-3.89
2022-12-18T11:28:39.125Z,-3.86
2022-12-18T11:29:47.105Z,-3.87
2022-12-18T11:30:49.849Z,-3.86
2022-12-18T11:31:52.400Z,-3.83
2022-12-18T11:32:55.501Z,-3.81
2022-12-18T11:35:19.858Z,-3.95
2022-12-18T11:36:22.411Z,-3.99
2022-12-18T11:37:25.773Z,-4
2022-12-18T11:38:28.316Z,-4
2022-12-18T11:39:30.861Z,-3.99
2022-12-18T11:40:41.729Z,-3.96
2022-12-18T11:41:44.561Z,-4.01
2022-12-18T11:42:47.508Z,-4
2022-12-18T11:43:50.328Z,-3.95
2022-12-18T11:44:53.087Z,-3.87
2022-12-18T11:45:55.667Z,-3.86
2022-12-18T11:46:58.496Z,-3.87
2022-12-18T11:48:01.163Z,-3.87
2022-12-18T11:49:03.940Z,-3.82
2022-12-18T11:50:06.557Z,-3.81
2022-12-18T11:51:09.168Z,-3.79
2022-12-18T11:52:11.772Z,-3.72
2022-12-18T11:53:14.424Z,-3.71
2022-12-18T11:54:17.029Z,-3.81
2022-12-18T11:55:19.566Z,-3.82
2022-12-18T11:56:22.098Z,-3.79
2022-12-18T11:57:24.806Z,-3.74
2022-12-18T11:58:32.100Z,-3.79
2022-12-18T11:59:34.713Z,-3.81
2022-12-18T12:00:37.236Z,-3.84
2022-12-18T12:01:45.093Z,-3.83
2022-12-18T12:02:48.009Z,-3.85
2022-12-18T12:03:51.048Z,-3.84
2022-12-18T12:04:53.672Z,-3.8
2022-12-18T12:05:56.689Z,-3.81
2022-12-18T12:07:03.697Z,-3.78
2022-12-18T12:08:06.001Z,-3.7
2022-12-18T12:09:08.603Z,-3.65
2022-12-18T12:10:11.185Z,-3.63
2022-12-18T12:11:13.976Z,-3.6
2022-12-18T12:12:16.518Z,-3.58
2022-12-18T12:13:19.337Z,-3.51
2022-12-18T12:14:22.047Z,-3.43
2022-12-18T12:15:24.785Z,-3.39
2022-12-18T12:16:27.473Z,-3.33
2022-12-18T12:17:31.998Z,-3.26
2022-12-18T12:18:36.326Z,-3.21
2022-12-18T12:19:38.846Z,-3.22
2022-12-18T12:20:41.471Z,-3.24
2022-12-18T12:21:47.568Z,-3.23
2022-12-18T12:22:49.885Z,-3.24
2022-12-18T12:23:52.517Z,-3.24
2022-12-18T12:24:55.156Z,-3.24
2022-12-18T12:25:57.733Z,-3.24
2022-12-18T12:27:00.241Z,-3.27
2022-12-18T12:28:02.864Z,-3.29
2022-12-18T12:29:10.852Z,-3.28
2022-12-18T12:30:13.609Z,-3.27
2022-12-18T12:31:17.775Z,-3.32
2022-12-18T12:32:20.582Z,-3.33
2022-12-18T12:33:23.213Z,-3.46
2022-12-18T12:34:25.696Z,-3.49
2022-12-18T12:35:28.273Z,-3.48
2022-12-18T12:36:31.049Z,-3.47
2022-12-18T12:37:33.622Z,-3.44
2022-12-18T12:38:36.127Z,-3.44
2022-12-18T12:39:38.769Z,-3.43
2022-12-18T12:41:03.875Z,-3.42
2022-12-18T12:42:06.050Z,-3.44
2022-12-18T12:43:09.000Z,-3.43
2022-12-18T12:44:11.645Z,-3.41
2022-12-18T12:45:14.780Z,-3.47
2022-12-18T12:46:17.754Z,-3.51
2022-12-18T12:47:21.993Z,-3.49
2022-12-18T12:48:24.982Z,-3.47
2022-12-18T12:49:28.295Z,-3.54
2022-12-18T12:50:31.697Z,-3.56
2022-12-18T12:51:34.384Z,-3.52
2022-12-18T12:52:36.997Z,-3.52
2022-12-18T12:53:41.630Z,-3.49
2022-12-18T12:54:46.017Z,-3.45
2022-12-18T12:55:49.087Z,-3.39
2022-12-18T12:56:52.118Z,-3.35
2022-12-18T12:57:54.918Z,-3.26
2022-12-18T12:58:58.600Z,-3.22
2022-12-18T13:00:01.298Z,-3.21
2022-12-18T13:01:04.472Z,-3.23
2022-12-18T13:02:08.106Z,-3.25
2022-12-18T13:03:12.656Z,-3.26
2022-12-18T13:04:16.912Z,-3.25
2022-12-18T13:05:20.505Z,-3.27
2022-12-18T13:06:23.101Z,-3.29
2022-12-18T13:07:30.659Z,-3.31
2022-12-18T13:08:38.767Z,-3.37
2022-12-18T13:09:42.267Z,-3.37
2022-12-18T13:10:46.028Z,-3.41
2022-12-18T13:11:49.015Z,-3.42
2022-12-18T13:12:53.240Z,-3.48
2022-12-18T13:13:56.794Z,-3.47
2022-12-18T13:15:00.831Z,-3.43
2022-12-18T13:16:04.189Z,-3.41
2022-12-18T13:17:07.431Z,-3.43
2022-12-18T13:18:11.669Z,-3.45
2022-12-18T13:19:14.412Z,-3.41
2022-12-18T13:20:17.471Z,-3.34
2022-12-18T13:21:20.547Z,-3.28
2022-12-18T13:22:24.493Z,-3.24
2022-12-18T13:23:27.522Z,-3.22
2022-12-18T13:24:30.094Z,-3.2
2022-12-18T13:25:32.736Z,-3.17
2022-12-18T13:26:36.208Z,-3.14
2022-12-18T13:27:39.273Z,-3.1
2022-12-18T13:28:42.319Z,-3.08
2022-12-18T13:29:45.625Z,-3.04
2022-12-18T13:30:49.203Z,-3.01
2022-12-18T13:31:57.866Z,-2.96
2022-12-18T13:33:00.850Z,-2.91
2022-12-18T13:34:28.858Z,-2.86
2022-12-18T13:35:26.438Z,-2.83
2022-12-18T13:36:29.309Z,-2.82
2022-12-18T13:37:32.976Z,-2.79
2022-12-18T13:38:35.995Z,-2.77